Saturday, August 2, 2014, 2:30 AM EDT

KOXB, Ocean City Municipal Airport

Location: Berlin, MD, United States Lat: 38.317
Local Time: 2:30 AM EDT ( 6:30 GMT) Lon: -75.117
Time Zone: US/Eastern Elev: 13 ft

Show me the last for .
Show Decoded

2014-08-02 02:22 METAR KOXB 020622Z AUTO 34010G18KT 3SM RA BR FEW007 FEW011 OVC032 20/19 A3009
                 RMK AO2 P0012 T02000189 TSNO =
2014-08-02 02:11 METAR KOXB 020611Z AUTO 01012G19KT 2SM +RA BR BKN034 OVC042 19/18 A3008 RMK AO2
                 P0009 T01940183 TSNO =
2014-08-02 01:53 METAR KOXB 020553Z AUTO 02012G17KT 3SM +RA BR FEW009 FEW033 OVC041 20/19 A3009
                 RMK AO2 SLP190 P0033 60058 T02000189 10233 20189 58016 TSNO =
2014-08-02 01:45 METAR KOXB 020545Z AUTO 03011KT 3SM RA BR FEW004 BKN034 OVC042 20/19 A3010 RMK
                 AO2 P0031 T02000189 TSNO =
2014-08-02 01:35 METAR KOXB 020535Z AUTO 04009KT 2SM RA BR FEW004 FEW014 OVC034 20/19 A3011 RMK
                 AO2 P0028 T02000194 TSNO =
2014-08-02 01:22 METAR KOXB 020522Z AUTO 03009KT 1 1/2SM +RA BR SCT006 BKN027 OVC036 21/19 A3012
                 RMK AO2 P0017 T02060194 TSNO =
2014-08-02 01:19 METAR KOXB 020519Z AUTO 03007KT 2SM +RA BR FEW006 SCT027 OVC036 21/19 A3012 RMK
                 AO2 P0011 T02060194 TSNO =
2014-08-02 01:11 METAR KOXB 020511Z AUTO 05008KT 3SM RA BR SCT006 SCT029 OVC038 21/19 A3013 RMK
                 AO2 P0006 T02060194 TSNO =
2014-08-02 01:04 METAR KOXB 020504Z AUTO 04007KT 2SM +RA BR BKN007 OVC036 19/19 A3013 RMK AO2
                 P0004 T01940189 TSNO =
2014-08-02 00:53 METAR KOXB 020453Z AUTO 01006KT 3SM -RA BR BKN007 BKN012 OVC037 19/18 A3014 RMK
                 AO2 SLP205 P0019 T01940183 402500189 TSNO =
2014-08-02 00:39 METAR KOXB 020439Z AUTO 02004KT 2SM RA BR BKN007 OVC017 19/18 A3014 RMK AO2
                 P0018 T01890178 TSNO =
2014-08-02 00:32 METAR KOXB 020432Z AUTO 34003KT 1 1/4SM +RA BR SCT007 BKN017 OVC039 19/18 A3015
                 RMK AO2 P0016 T01890178 TSNO =
2014-08-02 00:14 METAR KOXB 020414Z AUTO 00000KT 1 3/4SM +RA BR FEW026 BKN038 OVC050 19/18 A3015
                 RMK AO2 P0008 T01940178 TSNO =
2014-08-01 23:53 METAR KOXB 020353Z AUTO 10006KT 4SM RA OVC043 20/17 A3015 RMK AO2 RAB0259 SLP210
                 P0006 T02000172 TSNO =
2014-08-01 23:46 METAR KOXB 020346Z AUTO 12008KT 2 1/2SM RA SCT040 OVC048 20/17 A3015 RMK AO2
                 RAB0259 P0005 T02000172 TSNO =
2014-08-01 22:14 METAR KOXB 020214Z AUTO 13011G16KT 10SM FEW016 FEW031 OVC100 23/16 A3014 RMK AO2
                 T02330161 TSNO =
2014-08-01 21:53 METAR KOXB 020153Z AUTO 11005KT 10SM SCT016 BKN024 OVC100 23/22 A3015 RMK AO2
                 SLP209 T02330217 TSNO =
2014-08-01 21:46 METAR KOXB 020146Z AUTO 11006KT 10SM BKN016 BKN024 OVC100 23/22 A3015 RMK AO2
                 T02330217 TSNO =
2014-08-01 20:53 METAR KOXB 020053Z AUTO 10004KT 10SM SCT019 SCT075 BKN100 23/22 A3016 RMK AO2
                 SLP214 T02280217 TSNO =
2014-08-01 19:53 METAR KOXB 012353Z AUTO 08006KT 10SM OVC095 23/21 A3015 RMK AO2 RAE2254 SLP210
                 P0000 60000 T02330206 10244 20233 55010 TSNO =
2014-08-01 19:04 METAR KOXB 012304Z AUTO 07006KT 10SM FEW002 FEW090 BKN110 23/19 A3015 RMK AO2
                 RAE2254 P0000 T02330194 TSNO =
2014-08-01 18:53 METAR KOXB 012253Z AUTO 07006KT 9SM -RA FEW070 BKN110 23/19 A3015 RMK AO2 RAB45
                 SLP208 P0000 T02330194 TSNO =
2014-08-01 17:53 METAR KOXB 012153Z AUTO 08006KT 10SM BKN110 24/21 A3016 RMK AO2 SLP213 T02390206
                 TSNO =
2014-08-01 16:53 METAR KOXB 012053Z AUTO 08004KT 9SM FEW017 FEW085 OVC110 24/21 A3018 RMK AO2
                 RAB18E36 SLP219 P0000 60000 T02390211 56010 TSNO =
2014-08-01 15:53 METAR KOXB 011953Z AUTO 00000KT 8SM OVC110 24/21 A3019 RMK AO2 RAB06E51 SLP223
                 P0000 T02390211 TSNO =
2014-08-01 13:53 METAR KOXB 011753Z AUTO 08004KT 9SM -RA BKN110 24/21 A3021 RMK AO2 RAB50 SLP229
                 P0000 60000 T02440211 10250 20222 57001 TSNO =
2014-08-01 12:53 METAR KOXB 011653Z AUTO 09004KT 10SM CLR 25/21 A3021 RMK AO2 SLP229 T02500206
                 TSNO =
2014-08-01 11:53 METAR KOXB 011553Z AUTO 12003KT 10SM BKN120 24/21 A3021 RMK AO2 RAE23 SLP230
                 P0000 T02440206 TSNO =
2014-08-01 10:53 METAR KOXB 011453Z AUTO 00000KT 9SM -RA FEW060 SCT120 24/20 A3021 RMK AO2 RAB50
                 SLP230 P0000 60000 T02390200 53011 TSNO =
2014-08-01 08:53 METAR KOXB 011253Z AUTO 17003KT 8SM CLR 24/21 A3019 RMK AO2 SLP222 T02390206
                 TSNO =
2014-08-01 07:53 METAR KOXB 011153Z AUTO 00000KT 5SM BR CLR 22/21 A3018 RMK AO2 SLP219 T02220211
                 10233 20211 53005 TSNO =
2014-08-01 06:53 METAR KOXB 011053Z AUTO 00000KT 5SM BR SCT110 22/20 A3016 RMK AO2 SLP214
                 T02170200 TSNO =
2014-08-01 05:53 METAR KOXB 010953Z AUTO 00000KT 8SM FEW120 22/20 A3016 RMK AO2 SLP213 T02220200
                 TSNO =
2014-08-01 04:53 METAR KOXB 010853Z AUTO 21003KT 10SM CLR 23/19 A3016 RMK AO2 SLP213 T02330194
                 58007 TSNO =
2014-08-01 03:53 METAR KOXB 010753Z AUTO 22006KT 10SM CLR 23/19 A3017 RMK AO2 SLP218 T02330194
                 TSNO =
2014-08-01 02:53 METAR KOXB 010653Z AUTO 21003KT 9SM CLR 23/20 A3018 RMK AO2 SLP218 T02280200
                 TSNO =

Support USWX by starting your Amazon purchase here.